Bibo Regio — HE6415 — position and weather

sailwx.info

Track history (hours):
 
Tides and Currents Weather Stations Pressure Air Temp Water Temp Dewpoint Dewpoint Depression Visibility Wind Speed Wind Dir Waves Ship Positions

Bibo Regio

Last reported at 2014-Jul-25 15:33 UTC. Time now 2014-Jul-25 16:01 UTC.
Position N 47°35' E 007°35'.

Length 32 m.

Type: Ship. MMSI: 269056415.

Date/timePositionNaut miles runAvg speedWind from/ knotsBaromVisibWave heightAir tempDewpointWater temp
2014-Jul-25 15:33N 47°35' E 007°35'0 0.0
2014-Jul-25 14:33N 47°35' E 007°35'0 0.0
2014-Jul-25 13:33N 47°35' E 007°35'0 0.0
2014-Jul-25 12:33N 47°35' E 007°35'0 0.0
2014-Jul-25 11:34N 47°35' E 007°35'0 0.5
2014-Jul-25 10:33N 47°36' E 007°36'4 4.2
2014-Jul-25 09:33N 47°39' E 007°32'63 2.5
2014-Jul-24 08:33N 48°41' E 007°55'0 0.0
2014-Jul-24 07:33N 48°41' E 007°55'0 0.0
2014-Jul-24 06:33N 48°41' E 007°55'0 0.0
2014-Jul-24 05:33N 48°41' E 007°55'0 0.0
2014-Jul-23 05:25N 48°41' E 007°55'62 2.5
2014-Jul-22 04:29N 47°40' E 007°31'4 4.8
2014-Jul-22 03:33N 47°37' E 007°35'2 1.5
2014-Jul-22 02:33N 47°35' E 007°35'0 0.0
2014-Jul-22 01:33N 47°35' E 007°35'0 0.0
2014-Jul-22 00:33N 47°35' E 007°35'0 0.0
2014-Jul-21 23:33N 47°35' E 007°35'0 0.0
2014-Jul-21 22:33N 47°35' E 007°35'0 0.0
2014-Jul-21 21:33N 47°35' E 007°35'0 0.0
2014-Jul-21 20:33N 47°35' E 007°35'0 0.0
2014-Jul-21 20:18N 47°35' E 007°35'0 0.0
2014-Jul-21 19:33N 47°35' E 007°35'0 0.0
2014-Jul-21 18:33N 47°35' E 007°35'0 0.0
2014-Jul-21 17:33N 47°35' E 007°35'0 0.0
2014-Jul-21 16:33N 47°35' E 007°35'0 0.0
2014-Jul-21 15:33N 47°35' E 007°35'0 0.0
2014-Jul-21 14:33N 47°35' E 007°35'1 0.8
2014-Jul-21 13:33N 47°36' E 007°35'1 0.8
2014-Jul-21 12:33N 47°35' E 007°35'0 0.0
2014-Jul-21 11:33N 47°35' E 007°35'0 0.0
2014-Jul-21 10:33N 47°35' E 007°35'0 0.3
2014-Jul-21 09:33N 47°35' E 007°35'0 0.3
2014-Jul-21 08:33N 47°35' E 007°35'0 0.0
2014-Jul-21 07:33N 47°35' E 007°35'0 0.0
2014-Jul-21 06:33N 47°35' E 007°35'0 0.0
2014-Jul-21 05:33N 47°35' E 007°35'0 0.0
2014-Jul-21 04:33N 47°35' E 007°35'0 0.0
2014-Jul-21 03:33N 47°35' E 007°35'0 0.0
2014-Jul-21 02:33N 47°35' E 007°35'0 0.0
2014-Jul-21 01:33N 47°35' E 007°35'0 0.0
2014-Jul-21 00:33N 47°35' E 007°35'0 0.0
2014-Jul-20 23:33N 47°35' E 007°35'0 0.0
2014-Jul-20 22:33N 47°35' E 007°35'0 0.0
2014-Jul-20 21:33N 47°35' E 007°35'0 0.0
2014-Jul-20 20:33N 47°35' E 007°35'0 0.0
2014-Jul-20 19:33N 47°35' E 007°35'0 0.0
2014-Jul-20 18:33N 47°35' E 007°35'0 0.0
2014-Jul-20 17:33N 47°35' E 007°35'0 0.0
2014-Jul-20 16:33N 47°35' E 007°35'0 0.0
2014-Jul-20 15:33N 47°35' E 007°35'0 0.0
2014-Jul-20 14:33N 47°35' E 007°35'0 0.0
2014-Jul-20 13:33N 47°35' E 007°35'0 0.0
2014-Jul-20 12:33N 47°35' E 007°35'0 0.0
2014-Jul-20 11:33N 47°35' E 007°35'0 0.0
2014-Jul-20 10:33N 47°35' E 007°35'0 0.0
2014-Jul-20 09:33N 47°35' E 007°35'0 0.0
2014-Jul-20 08:33N 47°35' E 007°35'0 0.0
2014-Jul-20 07:33N 47°35' E 007°35'0 0.0
2014-Jul-20 06:33N 47°35' E 007°35'0 0.0
2014-Jul-20 05:33N 47°35' E 007°35'0 0.0
2014-Jul-20 04:33N 47°35' E 007°35'0 0.0
2014-Jul-20 03:33N 47°35' E 007°35'0 0.0
2014-Jul-20 02:33N 47°35' E 007°35'0 0.0
2014-Jul-20 00:33N 47°35' E 007°35'0 0.0
2014-Jul-19 23:33N 47°35' E 007°35'0 0.0
2014-Jul-19 22:33N 47°35' E 007°35'0 0.0
2014-Jul-19 21:33N 47°35' E 007°35'0 0.0
2014-Jul-19 20:33N 47°35' E 007°35'0 0.0
2014-Jul-19 19:33N 47°35' E 007°35'0 0.0
2014-Jul-19 18:33N 47°35' E 007°35'0 0.0
2014-Jul-19 17:33N 47°35' E 007°35'0 0.0
2014-Jul-19 16:33N 47°35' E 007°35'0 0.0
2014-Jul-19 15:33N 47°35' E 007°35'0 0.0
2014-Jul-19 14:32N 47°35' E 007°35'0 0.0
2014-Jul-19 13:33N 47°35' E 007°35'0 0.0
2014-Jul-19 12:33N 47°35' E 007°35'0 0.0
2014-Jul-19 11:33N 47°35' E 007°35'0 0.0
2014-Jul-19 10:33N 47°35' E 007°35'0 0.0
2014-Jul-19 09:33N 47°35' E 007°35'0 0.0
2014-Jul-19 08:33N 47°35' E 007°35'0 0.0
2014-Jul-19 07:33N 47°35' E 007°35'0 0.0
2014-Jul-19 06:33N 47°35' E 007°35'0 0.0
2014-Jul-19 05:33N 47°35' E 007°35'0 0.0
2014-Jul-19 04:33N 47°35' E 007°35'0 0.0
2014-Jul-19 03:33N 47°35' E 007°35'0 0.0
2014-Jul-19 02:33N 47°35' E 007°35'0 0.0
2014-Jul-19 01:33N 47°35' E 007°35'0 0.0
2014-Jul-19 00:33N 47°35' E 007°35'0 0.0
2014-Jul-18 23:33N 47°35' E 007°35'0 0.0
2014-Jul-18 22:33N 47°35' E 007°35'0 0.0
2014-Jul-18 21:33N 47°35' E 007°35'0 0.0
2014-Jul-18 20:33N 47°35' E 007°35'0 0.0
2014-Jul-18 19:33N 47°35' E 007°35'0 0.0
2014-Jul-18 18:33N 47°35' E 007°35'0 0.0
2014-Jul-18 17:33N 47°35' E 007°35'0 0.0
2014-Jul-18 16:33N 47°35' E 007°35'0 0.0
2014-Jul-18 15:33N 47°35' E 007°35'0 0.0
2014-Jul-18 14:33N 47°35' E 007°35'0 0.0
2014-Jul-18 13:33N 47°35' E 007°35'0 0.3
2014-Jul-18 12:33N 47°35' E 007°36'0 0.3
2014-Jul-18 11:33N 47°35' E 007°35'0 0.0
2014-Jul-18 10:33N 47°35' E 007°35'0 0.2
2014-Jul-18 09:33N 47°35' E 007°35'0 0.2
2014-Jul-18 08:33N 47°35' E 007°35'0 0.0
2014-Jul-18 07:33N 47°35' E 007°35'0 0.0
2014-Jul-18 06:33N 47°35' E 007°35'0 0.0
2014-Jul-18 05:33N 47°35' E 007°35'0 0.0
2014-Jul-18 04:33N 47°35' E 007°35'0 0.0
2014-Jul-18 03:33N 47°35' E 007°35'0 0.0
2014-Jul-18 02:33N 47°35' E 007°35'0 0.0
2014-Jul-18 01:33N 47°35' E 007°35'0 0.0
2014-Jul-18 00:33N 47°35' E 007°35'0 0.0
2014-Jul-17 23:33N 47°35' E 007°35'0 0.0
2014-Jul-17 22:33N 47°35' E 007°35'0 0.0
2014-Jul-17 21:33N 47°35' E 007°35'0 0.0
2014-Jul-17 20:33N 47°35' E 007°35'0 0.0
2014-Jul-17 19:33N 47°35' E 007°35'0 0.0
2014-Jul-17 18:33N 47°35' E 007°35'0 0.0
2014-Jul-17 17:33N 47°35' E 007°35'0 0.0
2014-Jul-17 16:33N 47°35' E 007°35'0 0.0
2014-Jul-17 15:33N 47°35' E 007°35'0 0.0
2014-Jul-17 14:33N 47°35' E 007°35'0 0.0
2014-Jul-17 13:33N 47°35' E 007°35'0 0.0
2014-Jul-17 12:33N 47°35' E 007°35'1 0.5
2014-Jul-17 11:33N 47°35' E 007°35'0 0.2
2014-Jul-17 10:33N 47°35' E 007°35'2 1.9
2014-Jul-17 09:33N 47°33' E 007°37'0 0.0
2014-Jul-17 08:33N 47°34' E 007°37'2 2.1
2014-Jul-17 07:33N 47°35' E 007°36'0 0.1
2014-Jul-17 06:33N 47°35' E 007°35'0 0.0
2014-Jul-17 05:33N 47°35' E 007°35'0 0.0
2014-Jul-17 04:33N 47°35' E 007°35'0 0.0
2014-Jul-17 03:33N 47°35' E 007°35'0 0.0
2014-Jul-17 02:33N 47°35' E 007°35'0 0.0
2014-Jul-17 01:33N 47°35' E 007°35'0 0.0
2014-Jul-17 00:33N 47°35' E 007°35'0 0.0
2014-Jul-16 23:34N 47°35' E 007°35'0 0.0
2014-Jul-16 22:33N 47°35' E 007°35'0 0.0
2014-Jul-16 21:34N 47°35' E 007°35'0 0.0
2014-Jul-16 20:33N 47°35' E 007°35'0 0.0
2014-Jul-16 19:33N 47°35' E 007°35'0 0.0
2014-Jul-16 18:33N 47°35' E 007°35'0 0.0
2014-Jul-16 17:33N 47°35' E 007°35'0 0.0
2014-Jul-16 16:33N 47°35' E 007°35'0 0.0
2014-Jul-16 15:33N 47°35' E 007°35'0 0.0
2014-Jul-16 14:33N 47°35' E 007°35'0 0.0
2014-Jul-16 13:33N 47°35' E 007°35'0 0.0
2014-Jul-16 12:33N 47°35' E 007°35'0 0.0
2014-Jul-16 11:34N 47°35' E 007°35'0 0.0
2014-Jul-16 10:34N 47°35' E 007°35'1 0.8
2014-Jul-16 09:33N 47°36' E 007°36'0 0.0
2014-Jul-16 08:33N 47°36' E 007°36'0 0.0
2014-Jul-16 07:33N 47°36' E 007°36'0 0.0
2014-Jul-16 06:33N 47°36' E 007°36'1 0.8
2014-Jul-16 05:33N 47°35' E 007°35'0 0.0
2014-Jul-16 04:33N 47°35' E 007°35'0 0.0
2014-Jul-16 03:33N 47°35' E 007°35'0 0.0
2014-Jul-16 02:33N 47°35' E 007°35'0 0.0
2014-Jul-16 01:33N 47°35' E 007°35'0 0.0
2014-Jul-16 00:33N 47°35' E 007°35'0 0.0
2014-Jul-15 23:34N 47°35' E 007°35'0 0.0
2014-Jul-15 22:33N 47°35' E 007°35'0 0.0
2014-Jul-15 21:33N 47°35' E 007°35'0 0.0
2014-Jul-15 20:33N 47°35' E 007°35'0 0.0
2014-Jul-15 19:33N 47°35' E 007°35'0 0.0
2014-Jul-15 18:33N 47°35' E 007°35'0 0.0
2014-Jul-15 17:33N 47°35' E 007°35'0 0.0
2014-Jul-15 16:33N 47°35' E 007°35'0 0.0
2014-Jul-15 15:33N 47°35' E 007°35'  
Track history (hours):
 
Tides and Currents Weather Stations Pressure Air Temp Water Temp Dewpoint Dewpoint Depression Visibility Wind Speed Wind Dir Waves Ship Positions

Bibo Regio

Last reported at 2014-Jul-25 15:33 UTC. Time now 2014-Jul-25 16:01 UTC.
Position N 47°35' E 007°35'.

Length 32 m.

Type: Ship. MMSI: 269056415.

Date/timePositionNaut miles runAvg speedWind from/ knotsBaromVisibWave heightAir tempDewpointWater temp
2014-Jul-25 15:33N 47°35' E 007°35'0 0.0
2014-Jul-25 14:33N 47°35' E 007°35'0 0.0
2014-Jul-25 13:33N 47°35' E 007°35'0 0.0
2014-Jul-25 12:33N 47°35' E 007°35'0 0.0
2014-Jul-25 11:34N 47°35' E 007°35'0 0.5
2014-Jul-25 10:33N 47°36' E 007°36'4 4.2
2014-Jul-25 09:33N 47°39' E 007°32'63 2.5
2014-Jul-24 08:33N 48°41' E 007°55'0 0.0
2014-Jul-24 07:33N 48°41' E 007°55'0 0.0
2014-Jul-24 06:33N 48°41' E 007°55'0 0.0
2014-Jul-24 05:33N 48°41' E 007°55'0 0.0
2014-Jul-23 05:25N 48°41' E 007°55'62 2.5
2014-Jul-22 04:29N 47°40' E 007°31'4 4.8
2014-Jul-22 03:33N 47°37' E 007°35'2 1.5
2014-Jul-22 02:33N 47°35' E 007°35'0 0.0
2014-Jul-22 01:33N 47°35' E 007°35'0 0.0
2014-Jul-22 00:33N 47°35' E 007°35'0 0.0
2014-Jul-21 23:33N 47°35' E 007°35'0 0.0
2014-Jul-21 22:33N 47°35' E 007°35'0 0.0
2014-Jul-21 21:33N 47°35' E 007°35'0 0.0
2014-Jul-21 20:33N 47°35' E 007°35'0 0.0
2014-Jul-21 20:18N 47°35' E 007°35'0 0.0
2014-Jul-21 19:33N 47°35' E 007°35'0 0.0
2014-Jul-21 18:33N 47°35' E 007°35'0 0.0
2014-Jul-21 17:33N 47°35' E 007°35'0 0.0
2014-Jul-21 16:33N 47°35' E 007°35'0 0.0
2014-Jul-21 15:33N 47°35' E 007°35'0 0.0
2014-Jul-21 14:33N 47°35' E 007°35'1 0.8
2014-Jul-21 13:33N 47°36' E 007°35'1 0.8
2014-Jul-21 12:33N 47°35' E 007°35'0 0.0
2014-Jul-21 11:33N 47°35' E 007°35'0 0.0
2014-Jul-21 10:33N 47°35' E 007°35'0 0.3
2014-Jul-21 09:33N 47°35' E 007°35'0 0.3
2014-Jul-21 08:33N 47°35' E 007°35'0 0.0
2014-Jul-21 07:33N 47°35' E 007°35'0 0.0
2014-Jul-21 06:33N 47°35' E 007°35'0 0.0
2014-Jul-21 05:33N 47°35' E 007°35'0 0.0
2014-Jul-21 04:33N 47°35' E 007°35'0 0.0
2014-Jul-21 03:33N 47°35' E 007°35'0 0.0
2014-Jul-21 02:33N 47°35' E 007°35'0 0.0
2014-Jul-21 01:33N 47°35' E 007°35'0 0.0
2014-Jul-21 00:33N 47°35' E 007°35'0 0.0
2014-Jul-20 23:33N 47°35' E 007°35'0 0.0
2014-Jul-20 22:33N 47°35' E 007°35'0 0.0
2014-Jul-20 21:33N 47°35' E 007°35'0 0.0
2014-Jul-20 20:33N 47°35' E 007°35'0 0.0
2014-Jul-20 19:33N 47°35' E 007°35'0 0.0
2014-Jul-20 18:33N 47°35' E 007°35'0 0.0
2014-Jul-20 17:33N 47°35' E 007°35'0 0.0
2014-Jul-20 16:33N 47°35' E 007°35'0 0.0
2014-Jul-20 15:33N 47°35' E 007°35'0 0.0
2014-Jul-20 14:33N 47°35' E 007°35'0 0.0
2014-Jul-20 13:33N 47°35' E 007°35'0 0.0
2014-Jul-20 12:33N 47°35' E 007°35'0 0.0
2014-Jul-20 11:33N 47°35' E 007°35'0 0.0
2014-Jul-20 10:33N 47°35' E 007°35'0 0.0
2014-Jul-20 09:33N 47°35' E 007°35'0 0.0
2014-Jul-20 08:33N 47°35' E 007°35'0 0.0
2014-Jul-20 07:33N 47°35' E 007°35'0 0.0
2014-Jul-20 06:33N 47°35' E 007°35'0 0.0
2014-Jul-20 05:33N 47°35' E 007°35'0 0.0
2014-Jul-20 04:33N 47°35' E 007°35'0 0.0
2014-Jul-20 03:33N 47°35' E 007°35'0 0.0
2014-Jul-20 02:33N 47°35' E 007°35'0 0.0
2014-Jul-20 00:33N 47°35' E 007°35'0 0.0
2014-Jul-19 23:33N 47°35' E 007°35'0 0.0
2014-Jul-19 22:33N 47°35' E 007°35'0 0.0
2014-Jul-19 21:33N 47°35' E 007°35'0 0.0
2014-Jul-19 20:33N 47°35' E 007°35'0 0.0
2014-Jul-19 19:33N 47°35' E 007°35'0 0.0
2014-Jul-19 18:33N 47°35' E 007°35'0 0.0
2014-Jul-19 17:33N 47°35' E 007°35'0 0.0
2014-Jul-19 16:33N 47°35' E 007°35'0 0.0
2014-Jul-19 15:33N 47°35' E 007°35'0 0.0
2014-Jul-19 14:32N 47°35' E 007°35'0 0.0
2014-Jul-19 13:33N 47°35' E 007°35'0 0.0
2014-Jul-19 12:33N 47°35' E 007°35'0 0.0
2014-Jul-19 11:33N 47°35' E 007°35'0 0.0
2014-Jul-19 10:33N 47°35' E 007°35'0 0.0
2014-Jul-19 09:33N 47°35' E 007°35'0 0.0
2014-Jul-19 08:33N 47°35' E 007°35'0 0.0
2014-Jul-19 07:33N 47°35' E 007°35'0 0.0
2014-Jul-19 06:33N 47°35' E 007°35'0 0.0
2014-Jul-19 05:33N 47°35' E 007°35'0 0.0
2014-Jul-19 04:33N 47°35' E 007°35'0 0.0
2014-Jul-19 03:33N 47°35' E 007°35'0 0.0
2014-Jul-19 02:33N 47°35' E 007°35'0 0.0
2014-Jul-19 01:33N 47°35' E 007°35'0 0.0
2014-Jul-19 00:33N 47°35' E 007°35'0 0.0
2014-Jul-18 23:33N 47°35' E 007°35'0 0.0
2014-Jul-18 22:33N 47°35' E 007°35'0 0.0
2014-Jul-18 21:33N 47°35' E 007°35'0 0.0
2014-Jul-18 20:33N 47°35' E 007°35'0 0.0
2014-Jul-18 19:33N 47°35' E 007°35'0 0.0
2014-Jul-18 18:33N 47°35' E 007°35'0 0.0
2014-Jul-18 17:33N 47°35' E 007°35'0 0.0
2014-Jul-18 16:33N 47°35' E 007°35'0 0.0
2014-Jul-18 15:33N 47°35' E 007°35'0 0.0
2014-Jul-18 14:33N 47°35' E 007°35'0 0.0
2014-Jul-18 13:33N 47°35' E 007°35'0 0.3
2014-Jul-18 12:33N 47°35' E 007°36'0 0.3
2014-Jul-18 11:33N 47°35' E 007°35'0 0.0
2014-Jul-18 10:33N 47°35' E 007°35'0 0.2
2014-Jul-18 09:33N 47°35' E 007°35'0 0.2
2014-Jul-18 08:33N 47°35' E 007°35'0 0.0
2014-Jul-18 07:33N 47°35' E 007°35'0 0.0
2014-Jul-18 06:33N 47°35' E 007°35'0 0.0
2014-Jul-18 05:33N 47°35' E 007°35'0 0.0
2014-Jul-18 04:33N 47°35' E 007°35'0 0.0
2014-Jul-18 03:33N 47°35' E 007°35'0 0.0
2014-Jul-18 02:33N 47°35' E 007°35'0 0.0
2014-Jul-18 01:33N 47°35' E 007°35'0 0.0
2014-Jul-18 00:33N 47°35' E 007°35'0 0.0
2014-Jul-17 23:33N 47°35' E 007°35'0 0.0
2014-Jul-17 22:33N 47°35' E 007°35'0 0.0
2014-Jul-17 21:33N 47°35' E 007°35'0 0.0
2014-Jul-17 20:33N 47°35' E 007°35'0 0.0
2014-Jul-17 19:33N 47°35' E 007°35'0 0.0
2014-Jul-17 18:33N 47°35' E 007°35'0 0.0
2014-Jul-17 17:33N 47°35' E 007°35'0 0.0
2014-Jul-17 16:33N 47°35' E 007°35'0 0.0
2014-Jul-17 15:33N 47°35' E 007°35'0 0.0
2014-Jul-17 14:33N 47°35' E 007°35'0 0.0
2014-Jul-17 13:33N 47°35' E 007°35'0 0.0
2014-Jul-17 12:33N 47°35' E 007°35'1 0.5
2014-Jul-17 11:33N 47°35' E 007°35'0 0.2
2014-Jul-17 10:33N 47°35' E 007°35'2 1.9
2014-Jul-17 09:33N 47°33' E 007°37'0 0.0
2014-Jul-17 08:33N 47°34' E 007°37'2 2.1
2014-Jul-17 07:33N 47°35' E 007°36'0 0.1
2014-Jul-17 06:33N 47°35' E 007°35'0 0.0
2014-Jul-17 05:33N 47°35' E 007°35'0 0.0
2014-Jul-17 04:33N 47°35' E 007°35'0 0.0
2014-Jul-17 03:33N 47°35' E 007°35'0 0.0
2014-Jul-17 02:33N 47°35' E 007°35'0 0.0
2014-Jul-17 01:33N 47°35' E 007°35'0 0.0
2014-Jul-17 00:33N 47°35' E 007°35'0 0.0
2014-Jul-16 23:34N 47°35' E 007°35'0 0.0
2014-Jul-16 22:33N 47°35' E 007°35'0 0.0
2014-Jul-16 21:34N 47°35' E 007°35'0 0.0
2014-Jul-16 20:33N 47°35' E 007°35'0 0.0
2014-Jul-16 19:33N 47°35' E 007°35'0 0.0
2014-Jul-16 18:33N 47°35' E 007°35'0 0.0
2014-Jul-16 17:33N 47°35' E 007°35'0 0.0
2014-Jul-16 16:33N 47°35' E 007°35'0 0.0
2014-Jul-16 15:33N 47°35' E 007°35'0 0.0
2014-Jul-16 14:33N 47°35' E 007°35'0 0.0
2014-Jul-16 13:33N 47°35' E 007°35'0 0.0
2014-Jul-16 12:33N 47°35' E 007°35'0 0.0
2014-Jul-16 11:34N 47°35' E 007°35'0 0.0
2014-Jul-16 10:34N 47°35' E 007°35'1 0.8
2014-Jul-16 09:33N 47°36' E 007°36'0 0.0
2014-Jul-16 08:33N 47°36' E 007°36'0 0.0
2014-Jul-16 07:33N 47°36' E 007°36'0 0.0
2014-Jul-16 06:33N 47°36' E 007°36'1 0.8
2014-Jul-16 05:33N 47°35' E 007°35'0 0.0
2014-Jul-16 04:33N 47°35' E 007°35'0 0.0
2014-Jul-16 03:33N 47°35' E 007°35'0 0.0
2014-Jul-16 02:33N 47°35' E 007°35'0 0.0
2014-Jul-16 01:33N 47°35' E 007°35'0 0.0
2014-Jul-16 00:33N 47°35' E 007°35'0 0.0
2014-Jul-15 23:34N 47°35' E 007°35'0 0.0
2014-Jul-15 22:33N 47°35' E 007°35'0 0.0
2014-Jul-15 21:33N 47°35' E 007°35'0 0.0
2014-Jul-15 20:33N 47°35' E 007°35'0 0.0
2014-Jul-15 19:33N 47°35' E 007°35'0 0.0
2014-Jul-15 18:33N 47°35' E 007°35'0 0.0
2014-Jul-15 17:33N 47°35' E 007°35'0 0.0
2014-Jul-15 16:33N 47°35' E 007°35'0 0.0
2014-Jul-15 15:33N 47°35' E 007°35'  

Dump ship's entire track history